createdAt,value
2023-01-13T00:00:42.424Z,99828.38
2023-01-13T00:01:44.765Z,99826.88
2023-01-13T00:02:47.119Z,99831.28
2023-01-13T00:03:49.430Z,99824.13
2023-01-13T00:04:51.772Z,99829.78
2023-01-13T00:05:53.940Z,99833.09
2023-01-13T00:06:56.392Z,99826.31
2023-01-13T00:07:58.701Z,99825.31
2023-01-13T00:09:00.864Z,99830.25
2023-01-13T00:10:03.250Z,99823.50
2023-01-13T00:11:05.588Z,99820.09
2023-01-13T00:12:07.918Z,99819.88
2023-01-13T00:13:10.878Z,99822.63
2023-01-13T00:14:13.105Z,99816.25
2023-01-13T00:15:15.490Z,99819.78
2023-01-13T00:16:18.870Z,99821.75
2023-01-13T00:17:22.588Z,99814.44
2023-01-13T00:18:25.065Z,99815.47
2023-01-13T00:19:27.224Z,99817.59
2023-01-13T00:20:29.571Z,99812.72
2023-01-13T00:21:32.140Z,99814.13
2023-01-13T00:22:35.351Z,99811.34
2023-01-13T00:23:37.588Z,99802.09
2023-01-13T00:24:39.714Z,99816.03
2023-01-13T00:25:42.048Z,99803.75
2023-01-13T00:26:44.217Z,99804.66
2023-01-13T00:27:46.550Z,99805.69
2023-01-13T00:28:49.664Z,99802.78
2023-01-13T00:29:52.375Z,99805.16
2023-01-13T00:30:58.256Z,99811.47
2023-01-13T00:32:00.639Z,99811.16
2023-01-13T00:33:02.957Z,99808.16
2023-01-13T00:34:05.140Z,99808.84
2023-01-13T00:35:07.795Z,99804.38
2023-01-13T00:36:12.731Z,99800.81
2023-01-13T00:37:14.908Z,99806.91
2023-01-13T00:38:17.076Z,99799.59
2023-01-13T00:39:19.229Z,99799.97
2023-01-13T00:40:21.372Z,99800.63
2023-01-13T00:41:25.292Z,99803.38
2023-01-13T00:42:46.392Z,99802.34
2023-01-13T00:43:49.636Z,99797.88
2023-01-13T00:44:51.802Z,99800.56
2023-01-13T00:45:54.598Z,99802.03
2023-01-13T00:46:56.734Z,99800.13
2023-01-13T00:47:58.896Z,99799.75
2023-01-13T00:49:01.214Z,99794.16
2023-01-13T00:50:03.532Z,99797.94
2023-01-13T00:51:05.774Z,99799.59
2023-01-13T00:52:07.924Z,99789.19
2023-01-13T00:53:10.309Z,99797.63
2023-01-13T00:54:12.635Z,99792.28
2023-01-13T00:55:14.816Z,99798.41
2023-01-13T00:56:22.115Z,99799.28
2023-01-13T00:57:32.649Z,99793.84
2023-01-13T00:58:35.615Z,99804.81
2023-01-13T00:59:37.775Z,99801.41
2023-01-13T01:00:40.091Z,99796.91
2023-01-13T01:01:42.591Z,99804.16
2023-01-13T01:02:45.003Z,99803.06
2023-01-13T01:03:48.801Z,99810.59
2023-01-13T01:04:50.924Z,99797.22
2023-01-13T01:05:53.063Z,99801.78
2023-01-13T01:06:55.448Z,99800.44
2023-01-13T01:07:57.566Z,99802.03
2023-01-13T01:09:00.093Z,99798.50
2023-01-13T01:10:02.419Z,99797.47
2023-01-13T01:11:07.471Z,99797.56
2023-01-13T01:12:09.684Z,99800.91
2023-01-13T01:13:15.030Z,99803.38
2023-01-13T01:14:17.593Z,99796.34
2023-01-13T01:15:19.703Z,99798.09
2023-01-13T01:16:24.515Z,99806.38
2023-01-13T01:17:28.083Z,99803.75
2023-01-13T01:18:30.208Z,99802.75
2023-01-13T01:19:32.585Z,99796.53
2023-01-13T01:20:34.819Z,99791.31
2023-01-13T01:21:37.090Z,99803.44
2023-01-13T01:22:39.475Z,99798.97
2023-01-13T01:23:41.917Z,99794.72
2023-01-13T01:24:44.081Z,99789.91
2023-01-13T01:25:46.255Z,99783.53
2023-01-13T01:26:48.404Z,99793.91
2023-01-13T01:27:50.771Z,99789.13
2023-01-13T01:28:53.344Z,99788.16
2023-01-13T01:29:55.675Z,99790.63
2023-01-13T01:31:01.991Z,99796.78
2023-01-13T01:32:04.256Z,99787.78
2023-01-13T01:33:06.405Z,99783.22
2023-01-13T01:34:08.804Z,99789.44
2023-01-13T01:35:11.206Z,99790.91
2023-01-13T01:36:15.046Z,99786.13
2023-01-13T01:37:17.281Z,99784.19
2023-01-13T01:38:21.243Z,99782.69
2023-01-13T01:39:23.599Z,99788.75
2023-01-13T01:40:27.591Z,99785.28
2023-01-13T01:41:32.253Z,99786.63
2023-01-13T01:42:52.885Z,99782.13
2023-01-13T01:43:59.199Z,99780.41
2023-01-13T01:45:14.250Z,99787.66
2023-01-13T01:46:16.498Z,99786.44
2023-01-13T01:47:20.200Z,99786.53
2023-01-13T01:48:22.359Z,99792.81
2023-01-13T01:49:33.407Z,99791.19
2023-01-13T01:50:37.070Z,99783.28
2023-01-13T01:51:45.874Z,99781.97
2023-01-13T01:52:53.886Z,99767.50
2023-01-13T01:53:56.989Z,99784.34
2023-01-13T01:55:05.220Z,99781.66
2023-01-13T01:56:10.555Z,99775.28
2023-01-13T01:57:18.163Z,99784.47
2023-01-13T01:58:31.211Z,99782.75
2023-01-13T01:59:36.084Z,99786.44
2023-01-13T02:00:41.993Z,99774.88
2023-01-13T02:01:45.541Z,99773.31
2023-01-13T02:02:50.689Z,99769.91
2023-01-13T02:03:59.369Z,99769.78
2023-01-13T02:05:02.075Z,99767.97
2023-01-13T02:06:04.727Z,99773.56
2023-01-13T02:07:07.001Z,99765.59
2023-01-13T02:08:11.775Z,99767.97
2023-01-13T02:09:14.176Z,99767.56
2023-01-13T02:10:20.679Z,99764.81
2023-01-13T02:11:53.383Z,99758.59
2023-01-13T02:13:00.383Z,99759.72
2023-01-13T02:14:02.882Z,99764.81
2023-01-13T02:15:21.262Z,99766.38
2023-01-13T02:16:24.889Z,99766.84
2023-01-13T02:18:02.631Z,99758.81
2023-01-13T02:19:38.823Z,99761.34
2023-01-13T02:20:59.949Z,99758.28
2023-01-13T02:22:23.022Z,99760.88
2023-01-13T02:23:59.252Z,99754.50
2023-01-13T02:25:11.400Z,99754.09
2023-01-13T02:26:47.337Z,99741.59
2023-01-13T02:27:54.073Z,99749.47
2023-01-13T02:29:50.503Z,99758.28
2023-01-13T02:31:18.111Z,99753.19
2023-01-13T02:32:33.558Z,99752.06
2023-01-13T02:34:10.334Z,99756.41
2023-01-13T02:35:26.236Z,99742.38
2023-01-13T02:36:42.173Z,99747.84
2023-01-13T02:37:45.100Z,99746.16
2023-01-13T02:39:13.406Z,99742.69
2023-01-13T02:40:22.870Z,99747.03
2023-01-13T02:42:02.873Z,99747.66
2023-01-13T02:43:37.942Z,99736.97
2023-01-13T02:44:53.965Z,99750.56
2023-01-13T02:46:03.011Z,99749.53
2023-01-13T02:47:10.222Z,99730.69
2023-01-13T02:48:15.307Z,99735.84
2023-01-13T02:49:29.853Z,99738.69
2023-01-13T02:50:44.357Z,99738.59
2023-01-13T02:51:48.564Z,99734.34
2023-01-13T02:53:05.882Z,99728.84
2023-01-13T02:54:16.180Z,99731.53
2023-01-13T02:55:24.575Z,99729.97
2023-01-13T02:56:27.553Z,99723.50
2023-01-13T02:57:33.909Z,99729.00
2023-01-13T02:58:39.349Z,99731.00
2023-01-13T02:59:43.065Z,99726.03
2023-01-13T03:00:46.599Z,99727.13
2023-01-13T03:01:50.198Z,99724.44
2023-01-13T03:02:52.879Z,99725.41
2023-01-13T03:03:55.150Z,99724.22
2023-01-13T03:04:59.986Z,99725.06
2023-01-13T03:06:31.706Z,99722.22
2023-01-13T03:07:48.957Z,99724.13
2023-01-13T03:09:00.211Z,99720.66
2023-01-13T03:10:23.953Z,99722.41
2023-01-13T03:11:33.533Z,99716.34
2023-01-13T03:12:51.587Z,99722.47
2023-01-13T03:14:35.192Z,99733.19
2023-01-13T03:16:05.366Z,99722.19
2023-01-13T03:17:25.566Z,99721.09
2023-01-13T03:18:45.646Z,99726.09
2023-01-13T03:20:02.372Z,99729.31
2023-01-13T03:21:35.865Z,99729.38
2023-01-13T03:22:59.971Z,99724.53
2023-01-13T03:24:22.850Z,99726.97
2023-01-13T03:25:49.360Z,99719.41
2023-01-13T03:27:04.220Z,99724.50
2023-01-13T03:28:12.003Z,99728.13
2023-01-13T03:29:23.002Z,99726.66
2023-01-13T03:30:41.778Z,99717.69
2023-01-13T03:31:58.260Z,99727.44
2023-01-13T03:33:07.321Z,99711.13
2023-01-13T03:34:20.625Z,99715.94
2023-01-13T03:35:29.141Z,99718.53
2023-01-13T03:36:32.697Z,99716.78
2023-01-13T03:37:39.459Z,99716.72
2023-01-13T03:38:53.923Z,99718.28
2023-01-13T03:40:27.800Z,99720.44
2023-01-13T03:41:36.086Z,99723.09
2023-01-13T03:42:41.556Z,99717.84
2023-01-13T03:44:21.641Z,99715.16
2023-01-13T03:45:24.101Z,99723.56
2023-01-13T03:46:44.236Z,99722.72
2023-01-13T03:47:52.993Z,99720.66
2023-01-13T03:48:58.664Z,99725.72
2023-01-13T03:50:06.853Z,99727.69
2023-01-13T03:51:14.042Z,99719.72
2023-01-13T03:52:25.352Z,99720.44
2023-01-13T03:53:32.644Z,99719.41
2023-01-13T03:54:41.947Z,99728.28
2023-01-13T03:55:52.402Z,99717.91
2023-01-13T03:56:59.564Z,99712.81
2023-01-13T03:58:06.724Z,99714.06
2023-01-13T03:59:16.924Z,99713.91
2023-01-13T04:00:25.913Z,99712.22
2023-01-13T04:01:48.578Z,99717.69
2023-01-13T04:03:11.361Z,99721.38
2023-01-13T04:04:31.549Z,99719.66
2023-01-13T04:05:39.473Z,99721.75
2023-01-13T04:06:50.813Z,99723.56
2023-01-13T04:08:01.905Z,99718.75
2023-01-13T04:09:10.115Z,99721.75
2023-01-13T04:10:16.562Z,99721.09
2023-01-13T04:11:29.765Z,99714.63
2023-01-13T04:13:01.255Z,99715.63
2023-01-13T04:14:04.850Z,99715.56
2023-01-13T04:15:07.888Z,99725.22
2023-01-13T04:16:11.815Z,99725.78
2023-01-13T04:17:15.537Z,99728.53
2023-01-13T04:18:22.184Z,99726.00
2023-01-13T04:19:24.559Z,99720.44
2023-01-13T04:20:26.857Z,99721.44
2023-01-13T04:21:30.584Z,99726.00
2023-01-13T04:22:32.802Z,99722.47
2023-01-13T04:23:35.306Z,99732.06
2023-01-13T04:24:37.487Z,99725.72
2023-01-13T04:25:41.122Z,99714.84
2023-01-13T04:26:43.560Z,99721.75
2023-01-13T04:27:45.745Z,99723.50
2023-01-13T04:28:48.109Z,99713.72
2023-01-13T04:29:50.289Z,99723.16
2023-01-13T04:30:52.850Z,99719.38
2023-01-13T04:31:55.064Z,99723.06
2023-01-13T04:32:57.460Z,99718.41
2023-01-13T04:33:59.927Z,99720.38
2023-01-13T04:35:02.264Z,99719.72
2023-01-13T04:36:04.725Z,99723.09
2023-01-13T04:37:06.886Z,99714.84
2023-01-13T04:38:12.316Z,99719.94
2023-01-13T04:39:14.670Z,99713.66
2023-01-13T04:40:17.240Z,99716.84
2023-01-13T04:41:19.641Z,99716.94
2023-01-13T04:42:22.015Z,99710.47
2023-01-13T04:43:24.394Z,99716.38
2023-01-13T04:44:27.382Z,99716.97
2023-01-13T04:45:29.612Z,99719.66
2023-01-13T04:46:31.833Z,99715.66
2023-01-13T04:47:34.034Z,99725.34
2023-01-13T04:48:36.447Z,99720.38
2023-01-13T04:49:38.816Z,99714.34
2023-01-13T04:50:41.278Z,99720.38
2023-01-13T04:51:43.489Z,99725.75
2023-01-13T04:52:53.593Z,99724.88
2023-01-13T04:53:56.150Z,99720.94
2023-01-13T04:54:58.385Z,99720.25
2023-01-13T04:56:00.634Z,99723.69
2023-01-13T04:57:03.006Z,99730.09
2023-01-13T04:58:07.899Z,99727.16
2023-01-13T04:59:12.120Z,99723.94
2023-01-13T05:00:16.582Z,99724.72
2023-01-13T05:01:18.829Z,99719.84
2023-01-13T05:02:21.209Z,99723.50
2023-01-13T05:03:24.425Z,99727.97
2023-01-13T05:04:26.804Z,99732.06
2023-01-13T05:05:30.371Z,99729.75
2023-01-13T05:06:33.004Z,99726.91
2023-01-13T05:07:35.520Z,99727.94
2023-01-13T05:08:37.691Z,99720.88
2023-01-13T05:09:40.121Z,99718.41
2023-01-13T05:10:42.302Z,99729.75
2023-01-13T05:12:03.058Z,99725.00
2023-01-13T05:13:23.802Z,99727.88
2023-01-13T05:14:44.534Z,99729.84
2023-01-13T05:16:06.783Z,99726.91
2023-01-13T05:17:12.346Z,99721.66
2023-01-13T05:18:15.727Z,99730.53
2023-01-13T05:19:18.120Z,99720.44
2023-01-13T05:20:20.417Z,99730.22
2023-01-13T05:21:41.208Z,99726.56
2023-01-13T05:23:01.902Z,99725.91
2023-01-13T05:24:42.809Z,99724.97
2023-01-13T05:25:48.151Z,99722.47
2023-01-13T05:26:50.358Z,99716.56
2023-01-13T05:27:58.379Z,99720.91
2023-01-13T05:29:00.554Z,99722.22
2023-01-13T05:30:03.511Z,99716.53
2023-01-13T05:31:06.093Z,99719.34
2023-01-13T05:32:08.972Z,99712.69
2023-01-13T05:33:16.173Z,99716.16
2023-01-13T05:34:18.370Z,99717.28
2023-01-13T05:35:20.860Z,99716.66
2023-01-13T05:36:23.165Z,99716.44
2023-01-13T05:37:25.981Z,99716.78
2023-01-13T05:38:28.384Z,99719.34
2023-01-13T05:39:50.664Z,99718.41
2023-01-13T05:41:12.032Z,99725.66
2023-01-13T05:42:32.685Z,99717.78
2023-01-13T05:43:35.252Z,99722.47
2023-01-13T05:44:37.452Z,99714.44
2023-01-13T05:45:39.656Z,99709.22
2023-01-13T05:46:42.323Z,99713.56
2023-01-13T05:47:44.513Z,99716.84
2023-01-13T05:48:48.125Z,99707.84
2023-01-13T05:49:50.342Z,99712.28
2023-01-13T05:50:53.937Z,99711.88
2023-01-13T05:51:56.571Z,99707.03
2023-01-13T05:52:58.804Z,99711.53
2023-01-13T05:54:00.986Z,99709.97
2023-01-13T05:55:04.047Z,99708.06
2023-01-13T05:56:07.277Z,99708.03
2023-01-13T05:57:09.695Z,99711.31
2023-01-13T05:58:14.512Z,99716.66
2023-01-13T05:59:16.679Z,99719.72
2023-01-13T06:00:19.638Z,99724.13
2023-01-13T06:01:21.899Z,99719.03
2023-01-13T06:03:47.894Z,99710.03
2023-01-13T06:04:50.111Z,99711.91
2023-01-13T06:05:58.447Z,99707.53
2023-01-13T06:07:01.002Z,99724.13
2023-01-13T06:08:05.365Z,99721.50
2023-01-13T06:09:07.734Z,99728.28
2023-01-13T06:10:10.360Z,99721.50
2023-01-13T06:11:12.523Z,99725.94
2023-01-13T06:12:14.933Z,99721.78
2023-01-13T06:13:17.829Z,99725.41
2023-01-13T06:14:20.204Z,99724.81
2023-01-13T06:15:23.284Z,99731.66
2023-01-13T06:16:25.553Z,99727.16
2023-01-13T06:17:28.790Z,99726.13
2023-01-13T06:18:31.043Z,99723.34
2023-01-13T06:19:33.440Z,99724.13
2023-01-13T06:20:35.764Z,99732.25
2023-01-13T06:21:37.928Z,99726.03
2023-01-13T06:22:43.722Z,99727.53
2023-01-13T06:23:46.057Z,99727.34
2023-01-13T06:24:49.665Z,99732.63
2023-01-13T06:26:10.071Z,99727.69
2023-01-13T06:27:13.030Z,99732.34
2023-01-13T06:28:15.503Z,99730.78
2023-01-13T06:29:17.920Z,99734.16
2023-01-13T06:30:20.362Z,99736.50
2023-01-13T06:31:23.455Z,99731.66
2023-01-13T06:32:32.496Z,99730.03
2023-01-13T06:33:38.304Z,99733.47
2023-01-13T06:34:44.507Z,99729.66
2023-01-13T06:35:52.336Z,99729.75
2023-01-13T06:36:55.484Z,99737.47
2023-01-13T06:38:01.935Z,99733.06
2023-01-13T06:39:04.415Z,99731.41
2023-01-13T06:40:07.392Z,99734.16
2023-01-13T06:41:09.969Z,99725.28
2023-01-13T06:42:30.947Z,99735.81
2023-01-13T06:43:33.693Z,99722.25
2023-01-13T06:44:36.101Z,99737.63
2023-01-13T06:45:38.275Z,99732.19
2023-01-13T06:46:40.569Z,99740.81
2023-01-13T06:47:44.029Z,99736.44
2023-01-13T06:48:46.395Z,99733.38
2023-01-13T06:49:48.953Z,99734.88
2023-01-13T06:50:51.346Z,99743.94
2023-01-13T06:51:53.501Z,99745.22
2023-01-13T06:52:55.755Z,99746.16
2023-01-13T06:53:58.198Z,99749.47
2023-01-13T06:55:00.604Z,99737.78
2023-01-13T06:56:02.811Z,99743.06
2023-01-13T06:57:05.267Z,99749.13
2023-01-13T06:58:08.018Z,99747.81
2023-01-13T06:59:10.446Z,99739.53
2023-01-13T07:00:13.362Z,99749.53
2023-01-13T07:01:15.822Z,99739.53
2023-01-13T07:02:18.218Z,99737.47
2023-01-13T07:03:20.409Z,99744.53
2023-01-13T07:04:22.728Z,99735.03
2023-01-13T07:05:24.927Z,99738.75
2023-01-13T07:06:27.284Z,99740.81
2023-01-13T07:07:29.478Z,99738.66
2023-01-13T07:08:31.975Z,99741.00
2023-01-13T07:09:34.558Z,99743.41
2023-01-13T07:10:37.186Z,99732.69
2023-01-13T07:11:39.539Z,99742.66
2023-01-13T07:13:00.344Z,99737.38
2023-01-13T07:14:21.145Z,99738.84
2023-01-13T07:15:23.584Z,99729.09
2023-01-13T07:16:28.180Z,99743.34
2023-01-13T07:17:30.609Z,99737.28
2023-01-13T07:18:34.401Z,99740.03
2023-01-13T07:19:37.075Z,99740.75
2023-01-13T07:20:39.282Z,99735.03
2023-01-13T07:21:41.523Z,99735.31
2023-01-13T07:22:44.377Z,99734.44
2023-01-13T07:23:47.622Z,99738.25
2023-01-13T07:24:50.353Z,99743.75
2023-01-13T07:25:55.552Z,99745.16
2023-01-13T07:26:57.837Z,99741.72
2023-01-13T07:28:00.203Z,99731.78
2023-01-13T07:29:02.460Z,99737.56
2023-01-13T07:30:06.275Z,99735.66
2023-01-13T07:31:17.819Z,99742.28
2023-01-13T07:32:20.051Z,99749.03
2023-01-13T07:33:22.923Z,99748.63
2023-01-13T07:34:25.190Z,99738.06
2023-01-13T07:35:27.751Z,99743.94
2023-01-13T07:36:29.956Z,99750.09
2023-01-13T07:37:36.629Z,99751.03
2023-01-13T07:38:40.001Z,99758.13
2023-01-13T07:39:42.347Z,99751.91
2023-01-13T07:40:44.754Z,99748.88
2023-01-13T07:42:05.692Z,99746.84
2023-01-13T07:43:30.189Z,99742.66
2023-01-13T07:44:32.550Z,99744.41
2023-01-13T07:45:34.945Z,99738.97
2023-01-13T07:46:38.346Z,99742.06
2023-01-13T07:47:40.782Z,99746.31
2023-01-13T07:48:43.126Z,99746.31
2023-01-13T07:49:45.524Z,99749.91
2023-01-13T07:50:47.962Z,99749.22
2023-01-13T07:51:50.181Z,99746.38
2023-01-13T07:52:52.632Z,99741.94
2023-01-13T07:53:54.875Z,99740.06
2023-01-13T07:54:57.102Z,99747.78
2023-01-13T07:56:00.012Z,99744.84
2023-01-13T07:57:02.203Z,99742.53
2023-01-13T07:58:04.370Z,99749.06
2023-01-13T07:59:06.731Z,99747.22
2023-01-13T08:00:11.978Z,99742.41
2023-01-13T08:01:16.946Z,99743.31
2023-01-13T08:02:19.295Z,99736.97
2023-01-13T08:03:22.894Z,99738.25
2023-01-13T08:04:25.286Z,99745.72
2023-01-13T08:05:27.445Z,99741.06
2023-01-13T08:06:30.189Z,99742.19
2023-01-13T08:07:32.632Z,99744.84
2023-01-13T08:08:35.232Z,99739.38
2023-01-13T08:09:37.637Z,99748.81
2023-01-13T08:10:40.028Z,99742.00
2023-01-13T08:11:42.397Z,99739.56
2023-01-13T08:13:03.440Z,99748.56
2023-01-13T08:14:05.494Z,99746.22
2023-01-13T08:15:10.093Z,99749.00
2023-01-13T08:16:15.026Z,99754.97
2023-01-13T08:17:19.160Z,99745.28
2023-01-13T08:18:22.996Z,99751.16
2023-01-13T08:19:25.173Z,99745.22
2023-01-13T08:20:27.736Z,99749.31
2023-01-13T08:21:30.147Z,99745.28
2023-01-13T08:22:33.345Z,99745.88
2023-01-13T08:23:35.968Z,99750.44
2023-01-13T08:24:38.119Z,99752.91
2023-01-13T08:25:40.751Z,99746.66
2023-01-13T08:26:43.138Z,99752.00
2023-01-13T08:27:45.306Z,99755.03
2023-01-13T08:28:47.618Z,99754.25
2023-01-13T08:29:49.831Z,99746.13
2023-01-13T08:30:54.054Z,99756.50
2023-01-13T08:31:56.633Z,99744.94
2023-01-13T08:32:58.852Z,99754.25
2023-01-13T08:34:01.211Z,99760.38
2023-01-13T08:35:03.412Z,99758.59
2023-01-13T08:36:07.586Z,99758.25
2023-01-13T08:37:09.812Z,99758.47
2023-01-13T08:38:12.032Z,99758.47
2023-01-13T08:39:14.513Z,99764.47
2023-01-13T08:40:18.150Z,99762.06
2023-01-13T08:41:40.493Z,99766.03
2023-01-13T08:42:42.706Z,99765.50
2023-01-13T08:43:44.932Z,99766.28
2023-01-13T08:44:48.576Z,99776.31
2023-01-13T08:46:02.107Z,99769.66
2023-01-13T08:47:05.024Z,99769.41
2023-01-13T08:48:07.317Z,99772.31
2023-01-13T08:49:09.521Z,99770.88
2023-01-13T08:50:11.968Z,99775.97
2023-01-13T08:51:14.407Z,99785.72
2023-01-13T08:52:16.965Z,99782.63
2023-01-13T08:53:20.383Z,99781.59
2023-01-13T08:54:22.640Z,99783.81
2023-01-13T08:55:25.114Z,99791.00
2023-01-13T08:56:29.960Z,99796.22
2023-01-13T08:57:32.351Z,99797.84
2023-01-13T08:58:34.852Z,99803.22
2023-01-13T08:59:37.253Z,99799.59
2023-01-13T09:00:39.727Z,99802.16
2023-01-13T09:01:42.780Z,99804.25
2023-01-13T09:02:45.066Z,99807.28
2023-01-13T09:03:47.286Z,99809.19
2023-01-13T09:04:50.821Z,99803.56
2023-01-13T09:05:53.029Z,99806.94
2023-01-13T09:06:56.003Z,99811.81
2023-01-13T09:07:58.227Z,99811.44
2023-01-13T09:09:02.563Z,99818.72
2023-01-13T09:10:09.033Z,99819.28
2023-01-13T09:11:52.673Z,99819.84
2023-01-13T09:13:13.409Z,99823.16
2023-01-13T09:14:24.695Z,99827.31
2023-01-13T09:15:26.915Z,99824.03
2023-01-13T09:16:29.123Z,99816.84
2023-01-13T09:17:31.682Z,99826.28
2023-01-13T09:18:33.894Z,99827.06
2023-01-13T09:19:36.764Z,99832.25
2023-01-13T09:20:39.481Z,99826.91
2023-01-13T09:21:41.913Z,99838.47
2023-01-13T09:22:44.319Z,99841.53
2023-01-13T09:23:46.608Z,99859.25
2023-01-13T09:24:49.008Z,99852.91
2023-01-13T09:25:52.776Z,99846.59
2023-01-13T09:26:54.994Z,99847.78
2023-01-13T09:27:58.254Z,99844.53
2023-01-13T09:29:00.720Z,99841.59
2023-01-13T09:30:03.489Z,99845.13
2023-01-13T09:31:06.086Z,99850.75
2023-01-13T09:32:11.826Z,99846.97
2023-01-13T09:33:32.809Z,99840.13
2023-01-13T09:34:54.030Z,99844.13
2023-01-13T09:36:00.894Z,99842.66
2023-01-13T09:37:04.795Z,99845.41
2023-01-13T09:38:07.523Z,99844.59
2023-01-13T09:39:09.889Z,99845.97
2023-01-13T09:40:24.140Z,99851.69
2023-01-13T09:41:47.657Z,99839.69
2023-01-13T09:43:14.241Z,99837.38
2023-01-13T09:44:46.067Z,99841.56
2023-01-13T09:45:56.073Z,99827.81
2023-01-13T09:47:04.418Z,99822.22
2023-01-13T09:48:12.269Z,99823.66
2023-01-13T09:49:30.771Z,99817.28
2023-01-13T09:50:46.499Z,99831.44
2023-01-13T09:52:16.270Z,99827.06
2023-01-13T09:53:32.414Z,99823.03
2023-01-13T09:54:48.440Z,99827.22
2023-01-13T09:55:51.238Z,99824.41
2023-01-13T09:56:53.689Z,99827.63
2023-01-13T09:57:56.185Z,99820.91
2023-01-13T09:58:58.606Z,99822.03
2023-01-13T10:00:00.840Z,99810.38
2023-01-13T10:01:38.952Z,99810.06
2023-01-13T10:03:16.550Z,99805.44
2023-01-13T10:04:19.010Z,99797.94
2023-01-13T10:05:45.051Z,99815.50
2023-01-13T10:06:56.291Z,99828.88
2023-01-13T10:08:04.738Z,99831.22
2023-01-13T10:09:15.928Z,99830.97
2023-01-13T10:10:29.691Z,99828.41
2023-01-13T10:11:57.089Z,99824.69
2023-01-13T10:13:15.047Z,99832.16
2023-01-13T10:14:28.234Z,99837.69
2023-01-13T10:15:30.915Z,99848.78
2023-01-13T10:16:34.510Z,99843.44
2023-01-13T10:17:44.607Z,99851.16
2023-01-13T10:18:56.075Z,99854.00
2023-01-13T10:20:22.547Z,99855.81
2023-01-13T10:21:34.018Z,99855.56
2023-01-13T10:22:45.121Z,99850.03
2023-01-13T10:24:17.966Z,99849.13
2023-01-13T10:25:46.345Z,99844.06
2023-01-13T10:27:03.072Z,99843.81
2023-01-13T10:28:19.426Z,99848.47
2023-01-13T10:29:28.288Z,99855.66
2023-01-13T10:30:40.025Z,99858.72
2023-01-13T10:31:42.239Z,99852.50
2023-01-13T10:32:58.042Z,99855.00
2023-01-13T10:34:04.291Z,99863.69
2023-01-13T10:35:06.915Z,99852.56
2023-01-13T10:36:12.012Z,99859.50
2023-01-13T10:37:23.922Z,99854.78
2023-01-13T10:38:26.339Z,99858.97
2023-01-13T10:39:39.033Z,99853.38
2023-01-13T10:40:49.207Z,99849.50
2023-01-13T10:42:01.247Z,99843.13
2023-01-13T10:43:06.766Z,99843.66
2023-01-13T10:44:17.840Z,99833.03
2023-01-13T10:45:25.602Z,99836.34
2023-01-13T10:46:29.740Z,99826.28
2023-01-13T10:47:36.387Z,99828.88
2023-01-13T10:48:55.829Z,99845.03
2023-01-13T10:50:13.373Z,99834.47
2023-01-13T10:51:25.768Z,99831.06
2023-01-13T10:52:36.079Z,99825.72
2023-01-13T10:54:09.391Z,99839.66
2023-01-13T10:55:42.046Z,99835.16
2023-01-13T10:56:46.062Z,99831.69
2023-01-13T10:57:48.421Z,99831.88
2023-01-13T10:58:50.630Z,99826.34
2023-01-13T10:59:54.786Z,99834.38
2023-01-13T11:01:04.387Z,99836.56
2023-01-13T11:02:29.773Z,99835.41
2023-01-13T11:03:41.675Z,99831.13
2023-01-13T11:04:55.683Z,99829.25
2023-01-13T11:06:00.291Z,99826.88
2023-01-13T11:07:18.441Z,99819.56
2023-01-13T11:08:45.228Z,99806.75
2023-01-13T11:09:47.572Z,99811.47
2023-01-13T11:10:52.550Z,99802.34
2023-01-13T11:11:56.600Z,99805.31
2023-01-13T11:13:26.976Z,99795.88
2023-01-13T11:14:44.311Z,99783.50
2023-01-13T11:15:58.950Z,99771.88
2023-01-13T11:17:30.812Z,99758.44
2023-01-13T11:19:13.417Z,99749.31
2023-01-13T11:20:32.446Z,99743.16
2023-01-13T11:22:00.847Z,99744.25
2023-01-13T11:23:12.862Z,99755.28
2023-01-13T11:24:30.442Z,99768.88
2023-01-13T11:25:43.126Z,99767.47
2023-01-13T11:26:53.635Z,99765.97
2023-01-13T11:28:04.938Z,99782.94
2023-01-13T11:29:20.490Z,99776.94
2023-01-13T11:30:50.686Z,99770.28
2023-01-13T11:32:03.420Z,99757.19
2023-01-13T11:33:15.108Z,99742.19
2023-01-13T11:34:36.361Z,99741.97
2023-01-13T11:35:45.470Z,99732.31
2023-01-13T11:36:52.004Z,99743.09
2023-01-13T11:38:01.404Z,99761.88
2023-01-13T11:39:35.114Z,99769.63
2023-01-13T11:40:42.469Z,99787.34
2023-01-13T11:42:09.854Z,99785.94
2023-01-13T11:43:47.819Z,99789.16
2023-01-13T11:45:18.177Z,99798.56
2023-01-13T11:46:26.166Z,99796.75
2023-01-13T11:47:29.746Z,99799.53
2023-01-13T11:48:37.601Z,99803.69
2023-01-13T11:49:40.272Z,99806.19
2023-01-13T11:50:47.598Z,99807.78
2023-01-13T11:52:04.342Z,99813.78
2023-01-13T11:53:24.670Z,99807.00
2023-01-13T11:54:40.676Z,99809.84
2023-01-13T11:56:01.676Z,99819.66
2023-01-13T11:57:22.861Z,99817.22
2023-01-13T11:58:24.933Z,99825.41
2023-01-13T11:59:54.949Z,99820.91
2023-01-13T12:01:05.919Z,99828.16
2023-01-13T12:04:17.229Z,99826.25
2023-01-13T12:05:42.965Z,99824.91
2023-01-13T12:06:46.584Z,99817.19
2023-01-13T12:07:51.591Z,99827.16
2023-01-13T12:09:00.100Z,99817.00
2023-01-13T12:10:35.327Z,99818.53
2023-01-13T12:12:22.235Z,99819.91
2023-01-13T12:13:27.072Z,99826.00
2023-01-13T12:14:48.632Z,99833.41
2023-01-13T12:16:14.480Z,99828.63
2023-01-13T12:17:55.490Z,99828.38
2023-01-13T12:19:04.971Z,99835.81
2023-01-13T12:20:30.526Z,99835.81
2023-01-13T12:21:37.360Z,99833.19
2023-01-13T12:22:41.632Z,99837.69
2023-01-13T12:23:47.218Z,99835.50
2023-01-13T12:24:55.560Z,99833.72
2023-01-13T12:26:30.027Z,99831.69
2023-01-13T12:27:47.310Z,99841.28
2023-01-13T12:28:56.293Z,99835.63
2023-01-13T12:30:01.948Z,99840.03
2023-01-13T12:31:04.774Z,99836.88
2023-01-13T12:32:14.772Z,99836.75
2023-01-13T12:33:48.045Z,99838.47
2023-01-13T12:35:19.892Z,99828.31
2023-01-13T12:36:59.046Z,99830.44
2023-01-13T12:38:11.644Z,99837.91
2023-01-13T12:39:41.962Z,99838.59
2023-01-13T12:41:04.558Z,99833.97
2023-01-13T12:42:36.719Z,99845.63
2023-01-13T12:44:02.546Z,99839.25
2023-01-13T12:45:10.684Z,99839.16
2023-01-13T12:46:18.944Z,99838.59
2023-01-13T12:47:39.139Z,99831.34
2023-01-13T12:48:46.127Z,99820.59
2023-01-13T12:49:48.319Z,99816.25
2023-01-13T12:51:00.652Z,99820.28
2023-01-13T12:52:14.825Z,99823.00
2023-01-13T12:53:32.307Z,99820.75
2023-01-13T12:54:37.235Z,99833.09
2023-01-13T12:55:39.422Z,99828.91
2023-01-13T12:56:44.755Z,99831.59
2023-01-13T12:58:08.274Z,99832.25
2023-01-13T12:59:19.841Z,99835.13
2023-01-13T13:00:22.431Z,99834.69
2023-01-13T13:01:36.125Z,99834.53
2023-01-13T13:02:41.284Z,99844.81
2023-01-13T13:04:13.832Z,99842.09
2023-01-13T13:05:25.096Z,99837.47
2023-01-13T13:06:31.143Z,99844.53
2023-01-13T13:08:10.343Z,99837.78
2023-01-13T13:09:21.423Z,99842.63
2023-01-13T13:10:30.174Z,99841.38
2023-01-13T13:11:59.722Z,99841.69
2023-01-13T13:13:18.152Z,99835.69
2023-01-13T13:14:39.363Z,99832.44
2023-01-13T13:15:41.868Z,99840.94
2023-01-13T13:16:53.914Z,99843.38
2023-01-13T13:18:16.649Z,99839.19
2023-01-13T13:19:19.986Z,99844.91
2023-01-13T13:21:03.584Z,99837.84
2023-01-13T13:22:26.491Z,99845.53
2023-01-13T13:23:40.081Z,99846.03
2023-01-13T13:24:48.415Z,99854.16
2023-01-13T13:26:15.229Z,99842.84
2023-01-13T13:28:05.875Z,99853.78
2023-01-13T13:29:38.856Z,99854.66
2023-01-13T13:30:50.242Z,99855.69
2023-01-13T13:32:22.938Z,99852.75